Time;durP1;ratioP1;P1;durP2;ratioP2;P2;SDS_P1;SDS_P2;PMS_P1;PMS_P2;Temp;Humidity;BMP_temperature;BMP_pressure;BME280_temperature;BME280_humidity;BME280_pressure;Samples;Min_cycle;Max_cycle;Signal;HPM_P1;HPM_P2
2024/04/07 00:00:43;;;;;;;6.47;3.95;;;;;;;10.05;100.00;96697.22;5059309;28;20047;-67
2024/04/07 00:03:09;;;;;;;7.00;3.92;;;;;;;9.89;100.00;96694.56;5054781;28;20040;-69
2024/04/07 00:05:34;;;;;;;9.75;3.60;;;;;;;9.88;100.00;96708.59;5059657;28;20044;-68
2024/04/07 00:08:00;;;;;;;6.53;4.00;;;;;;;9.99;100.00;96698.63;5040560;28;20491;-67
2024/04/07 00:10:25;;;;;;;9.40;3.97;;;;;;;10.31;100.00;96703.94;5054624;28;20049;-68
2024/04/07 00:12:51;;;;;;;7.78;3.75;;;;;;;10.43;100.00;96695.56;5062632;28;20474;-67
2024/04/07 00:15:16;;;;;;;6.60;3.85;;;;;;;10.43;100.00;96686.56;5057331;28;20036;-67
2024/04/07 00:17:42;;;;;;;8.80;3.95;;;;;;;10.39;100.00;96688.41;5056444;28;20091;-68
2024/04/07 00:20:07;;;;;;;8.23;3.90;;;;;;;10.42;100.00;96693.16;5067870;28;20036;-69
2024/04/07 00:22:33;;;;;;;6.57;4.10;;;;;;;10.39;100.00;96682.94;5081324;28;20467;-71
2024/04/07 00:24:58;;;;;;;7.30;4.15;;;;;;;10.37;100.00;96679.78;5080408;28;20051;-69
2024/04/07 00:27:26;;;;;;;8.73;4.00;;;;;;;10.28;100.00;96672.59;5079204;28;20062;-67
2024/04/07 00:29:52;;;;;;;7.72;4.60;;;;;;;10.14;100.00;96677.81;5075983;28;20113;-67
2024/04/07 00:32:17;;;;;;;7.20;4.00;;;;;;;10.05;100.00;96669.84;5059170;28;20551;-67
2024/04/07 00:34:47;;;;;;;10.07;4.45;;;;;;;10.04;100.00;96660.03;5062597;28;20071;-71
2024/04/07 00:37:12;;;;;;;11.32;5.18;;;;;;;10.29;100.00;96654.22;5059046;28;20043;-69
2024/04/07 00:39:37;;;;;;;9.20;4.70;;;;;;;10.27;100.00;96660.06;5061573;28;20037;-69
2024/04/07 00:42:03;;;;;;;9.32;4.97;;;;;;;10.18;100.00;96656.00;5060390;28;20056;-67
2024/04/07 00:44:29;;;;;;;8.68;4.30;;;;;;;10.10;100.00;96655.88;5063954;28;20097;-69
2024/04/07 00:46:54;;;;;;;9.93;5.07;;;;;;;10.04;100.00;96645.56;5062455;28;20044;-69
2024/04/07 00:49:20;;;;;;;8.05;4.68;;;;;;;10.11;100.00;96642.97;5058012;28;20052;-70
2024/04/07 00:51:45;;;;;;;10.15;5.07;;;;;;;10.20;100.00;96639.97;5063233;28;20036;-73
2024/04/07 00:54:12;;;;;;;9.98;4.47;;;;;;;10.30;100.00;96639.38;5057232;28;20055;-69
2024/04/07 00:56:38;;;;;;;8.25;4.70;;;;;;;10.79;100.00;96624.13;5062125;28;20142;-70
2024/04/07 00:59:03;;;;;;;11.02;4.55;;;;;;;11.01;100.00;96622.44;5057417;28;20506;-69
2024/04/07 01:01:29;;;;;;;11.25;4.93;;;;;;;10.97;100.00;96627.88;5063245;28;20118;-70
2024/04/07 01:03:54;;;;;;;9.13;4.60;;;;;;;10.94;100.00;96639.56;5062235;28;20037;-70
2024/04/07 01:06:20;;;;;;;8.18;3.83;;;;;;;11.10;100.00;96664.06;5057963;28;20032;-70
2024/04/07 01:08:46;;;;;;;7.80;4.40;;;;;;;11.20;100.00;96687.28;5062200;28;20045;-72
2024/04/07 01:11:12;;;;;;;8.73;4.65;;;;;;;11.14;100.00;96670.38;5057689;28;20040;-70
2024/04/07 01:13:37;;;;;;;7.45;4.22;;;;;;;11.31;100.00;96660.84;5062371;28;20041;-69
2024/04/07 01:16:03;;;;;;;8.35;4.43;;;;;;;10.93;100.00;96656.38;5062179;28;20082;-65
2024/04/07 01:18:28;;;;;;;7.15;4.13;;;;;;;10.94;100.00;96663.47;5060509;28;20120;-67
2024/04/07 01:20:54;;;;;;;8.18;4.57;;;;;;;11.13;100.00;96663.34;5045198;28;20057;-69
2024/04/07 01:23:20;;;;;;;7.88;4.20;;;;;;;11.19;100.00;96661.84;5055315;28;20029;-68
2024/04/07 01:25:46;;;;;;;8.88;4.10;;;;;;;11.11;100.00;96657.44;5060752;28;20459;-70
2024/04/07 01:28:12;;;;;;;6.72;4.20;;;;;;;11.21;100.00;96661.47;5056350;28;20043;-69
2024/04/07 01:30:38;;;;;;;8.25;4.28;;;;;;;11.28;100.00;96667.84;5062272;28;20418;-69
2024/04/07 01:33:03;;;;;;;6.20;4.40;;;;;;;11.30;100.00;96659.25;5057323;28;20103;-66
2024/04/07 01:35:30;;;;;;;9.40;4.20;;;;;;;11.20;100.00;96662.63;5061092;28;20040;-69
2024/04/07 01:37:56;;;;;;;8.35;4.47;;;;;;;11.08;100.00;96645.25;5060494;28;20037;-68
2024/04/07 01:40:22;;;;;;;6.80;4.50;;;;;;;10.63;100.00;96648.91;5057517;28;20707;-67
2024/04/07 01:42:48;;;;;;;9.98;4.97;;;;;;;10.31;100.00;96640.97;5060866;28;20036;-68
2024/04/07 01:45:14;;;;;;;8.02;4.47;;;;;;;10.23;100.00;96636.53;5056401;28;20086;-69
2024/04/07 01:47:40;;;;;;;7.90;4.25;;;;;;;10.27;100.00;96632.69;5061235;28;20495;-72
2024/04/07 01:50:07;;;;;;;12.98;4.75;;;;;;;10.30;100.00;96640.16;5056822;28;20043;-68
2024/04/07 01:52:32;;;;;;;7.05;3.97;;;;;;;10.42;100.00;96635.69;5061653;28;20060;-70
2024/04/07 01:54:58;;;;;;;6.68;4.18;;;;;;;10.62;100.00;96626.19;5060823;28;20482;-70
2024/04/07 01:57:23;;;;;;;7.18;4.20;;;;;;;10.62;100.00;96622.69;5056291;28;20044;-66
2024/04/07 01:59:50;;;;;;;8.85;4.00;;;;;;;10.42;100.00;96611.03;5060661;28;20434;-69
2024/04/07 02:02:19;;;;;;;10.18;4.30;;;;;;;10.31;100.00;96608.13;5056482;28;20045;-69
2024/04/07 02:04:45;;;;;;;7.63;4.00;;;;;;;10.29;100.00;96605.72;5063150;28;20036;-69
2024/04/07 02:07:11;;;;;;;6.35;4.13;;;;;;;10.55;100.00;96597.91;5058310;28;20303;-70
2024/04/07 02:12:58;;;;;;;6.78;4.03;;;;;;;10.65;100.00;96598.06;5059025;28;20123;-69
2024/04/07 02:15:24;;;;;;;6.55;3.72;;;;;;;10.79;100.00;96596.72;5054494;28;20147;-69
2024/04/07 02:17:50;;;;;;;5.35;3.78;;;;;;;10.68;100.00;96599.31;5042288;28;20045;-68
2024/04/07 02:20:16;;;;;;;10.30;4.40;;;;;;;10.51;100.00;96603.34;5037687;28;20098;-68
2024/04/07 02:22:43;;;;;;;12.48;7.22;;;;;;;10.46;100.00;96606.41;5060797;28;20047;-69
2024/04/07 02:25:10;;;;;;;11.75;3.83;;;;;;;10.38;100.00;96597.28;5056948;28;20036;-68
2024/04/07 02:27:35;;;;;;;9.18;4.15;;;;;;;10.35;100.00;96600.75;5057077;28;20045;-67
2024/04/07 02:30:01;;;;;;;10.55;3.75;;;;;;;10.52;100.00;96605.72;5069021;28;20051;-66
2024/04/07 02:32:26;;;;;;;6.05;3.50;;;;;;;10.59;100.00;96615.19;5072383;28;20122;-68
2024/04/07 02:34:52;;;;;;;11.15;3.67;;;;;;;10.60;100.00;96616.78;5070131;28;20048;-68
2024/04/07 02:37:17;;;;;;;6.30;3.80;;;;;;;10.63;100.00;96614.09;5056484;28;20036;-69
2024/04/07 02:39:43;;;;;;;9.30;3.35;;;;;;;10.71;100.00;96612.25;5058531;28;20052;-69
2024/04/07 02:42:08;;;;;;;10.82;3.58;;;;;;;10.71;100.00;96614.97;5066307;28;20041;-68
2024/04/07 02:50:01;;;;;;;8.45;3.70;;;;;;;10.56;100.00;96614.00;5061143;28;20052;-65
2024/04/07 02:52:27;;;;;;;6.45;3.85;;;;;;;10.10;100.00;96616.75;5063971;28;20110;-66
2024/04/07 02:54:52;;;;;;;9.63;3.60;;;;;;;10.14;100.00;96620.34;5062822;28;20083;-67
2024/04/07 02:57:17;;;;;;;7.57;3.85;;;;;;;9.63;100.00;96617.88;5056114;28;20033;-69
2024/04/07 02:59:43;;;;;;;6.90;3.45;;;;;;;9.57;100.00;96623.63;5060653;28;20045;-70
2024/04/07 03:02:08;;;;;;;8.27;3.72;;;;;;;9.76;100.00;96616.56;5055356;28;20044;-69
2024/04/07 03:04:33;;;;;;;5.47;3.90;;;;;;;9.97;100.00;96615.34;5062244;28;20044;-68
2024/04/07 03:07:00;;;;;;;15.32;7.25;;;;;;;10.00;100.00;96609.16;5047083;28;20047;-70
2024/04/07 03:09:28;;;;;;;7.88;4.43;;;;;;;10.02;100.00;96612.31;5066392;28;20105;-67
2024/04/07 03:11:54;;;;;;;8.70;3.92;;;;;;;10.05;100.00;96617.06;5051764;28;20028;-70
2024/04/07 03:14:19;;;;;;;5.88;3.58;;;;;;;10.03;100.00;96613.88;5035452;28;20043;-68
2024/04/07 03:16:46;;;;;;;8.23;3.80;;;;;;;10.12;100.00;96606.25;5073490;28;20032;-67
2024/04/07 03:19:11;;;;;;;6.20;4.18;;;;;;;10.24;100.00;96613.47;5041333;28;20029;-68
2024/04/07 03:21:37;;;;;;;5.18;3.55;;;;;;;10.31;100.00;96613.59;5043878;28;20514;-68
2024/04/07 03:24:03;;;;;;;7.07;3.80;;;;;;;10.21;100.00;96611.44;5038838;28;20135;-65
2024/04/07 03:26:29;;;;;;;8.50;3.75;;;;;;;10.16;100.00;96623.50;5052337;28;20052;-69
2024/04/07 03:28:54;;;;;;;8.32;3.90;;;;;;;10.13;100.00;96618.75;5060141;28;20040;-68
2024/04/07 03:31:20;;;;;;;6.88;3.83;;;;;;;10.19;100.00;96627.44;5061339;28;20040;-69
2024/04/07 03:33:48;;;;;;;14.50;4.70;;;;;;;10.04;100.00;96621.72;5058315;28;20052;-68
2024/04/07 03:36:14;;;;;;;12.23;3.90;;;;;;;10.01;100.00;96636.16;5069599;28;20104;-68
2024/04/07 03:38:39;;;;;;;11.52;4.03;;;;;;;9.99;100.00;96638.44;5061735;28;20083;-66
2024/04/07 03:41:04;;;;;;;6.68;3.78;;;;;;;9.93;100.00;96635.22;5055402;28;21021;-67
2024/04/07 03:43:30;;;;;;;8.63;3.72;;;;;;;9.90;100.00;96637.91;5058420;28;20082;-68
2024/04/07 03:46:05;;;;;;;6.65;3.53;;;;;;;9.81;100.00;96627.19;5057460;28;20072;-68
2024/04/07 03:48:30;;;;;;;6.10;3.92;;;;;;;9.87;100.00;96644.13;5058005;28;20044;-69
2024/04/07 03:50:57;;;;;;;7.93;4.22;;;;;;;9.86;100.00;96643.31;5059690;28;20142;-68
2024/04/07 03:53:27;;;;;;;6.63;3.90;;;;;;;9.87;100.00;96636.69;5034955;28;20405;-68
2024/04/07 03:55:52;;;;;;;6.22;4.18;;;;;;;9.42;100.00;96645.56;5059441;28;20051;-69
2024/04/07 03:58:18;;;;;;;10.27;4.00;;;;;;;9.32;100.00;96650.47;5054794;28;20044;-69
2024/04/07 04:00:43;;;;;;;8.85;4.35;;;;;;;9.42;100.00;96637.38;5059959;28;20491;-69
2024/04/07 04:03:08;;;;;;;7.65;3.95;;;;;;;9.46;100.00;96651.94;5056164;28;20478;-67
2024/04/07 04:05:34;;;;;;;9.10;4.25;;;;;;;9.64;100.00;96652.28;5059850;28;20568;-69
2024/04/07 04:07:59;;;;;;;6.68;4.72;;;;;;;9.86;100.00;96628.84;5059438;28;20048;-68
2024/04/07 04:10:25;;;;;;;15.57;5.18;;;;;;;9.88;100.00;96643.72;5054925;28;20130;-69
2024/04/07 04:12:54;;;;;;;4.35;2.83;;;;;;;9.84;100.00;96644.84;5059965;28;20044;-69
2024/04/07 04:15:20;;;;;;;7.60;4.00;;;;;;;9.89;100.00;96636.34;5036381;28;21841;-68
2024/04/07 04:17:46;;;;;;;6.05;4.00;;;;;;;9.99;100.00;96643.13;5059127;28;20068;-69
2024/04/07 04:20:12;;;;;;;6.22;3.67;;;;;;;9.99;100.00;96638.44;5046454;28;20036;-68
2024/04/07 04:22:38;;;;;;;6.85;3.92;;;;;;;10.02;100.00;96651.41;5058518;28;20056;-69
2024/04/07 04:25:03;;;;;;;10.18;3.65;;;;;;;10.08;100.00;96640.94;5055167;28;20040;-65
2024/04/07 04:27:29;;;;;;;7.55;3.88;;;;;;;10.13;100.00;96651.59;5052585;28;20427;-68
2024/04/07 04:29:54;;;;;;;8.35;3.45;;;;;;;10.19;100.00;96658.38;5059035;28;20048;-69
2024/04/07 04:32:20;;;;;;;7.30;3.53;;;;;;;10.13;100.00;96666.06;5057977;28;20049;-70
2024/04/07 04:34:46;;;;;;;6.50;4.03;;;;;;;10.04;100.00;96668.25;5061234;28;20047;-70
2024/04/07 04:37:11;;;;;;;7.45;4.00;;;;;;;9.75;100.00;96673.19;5056243;28;20388;-68
2024/04/07 04:39:36;;;;;;;4.85;3.28;;;;;;;9.71;100.00;96686.00;5061412;28;20098;-70
2024/04/07 04:42:02;;;;;;;7.38;3.70;;;;;;;9.71;100.00;96699.69;5059005;28;20037;-66
2024/04/07 04:44:27;;;;;;;8.20;3.63;;;;;;;9.68;100.00;96705.88;5057739;28;20083;-69
2024/04/07 04:46:53;;;;;;;6.78;3.70;;;;;;;9.98;100.00;96721.69;5057337;28;20587;-68
2024/04/07 04:49:18;;;;;;;7.55;4.10;;;;;;;9.93;100.00;96720.03;5035060;28;20048;-69
2024/04/07 04:51:44;;;;;;;4.80;3.30;;;;;;;9.94;100.00;96740.78;5059235;28;20044;-67
2024/04/07 04:54:11;;;;;;;8.40;3.80;;;;;;;10.02;100.00;96743.66;5035343;28;20102;-68
2024/04/07 04:56:37;;;;;;;6.68;3.63;;;;;;;9.94;100.00;96765.41;5059378;28;20070;-67
2024/04/07 04:59:03;;;;;;;5.38;3.83;;;;;;;9.99;100.00;96763.53;5058763;28;20090;-63
2024/04/07 05:01:29;;;;;;;7.47;3.55;;;;;;;10.06;100.00;96785.56;5042526;28;20071;-67
2024/04/07 05:03:55;;;;;;;6.05;3.40;;;;;;;10.14;100.00;96801.75;5062658;28;20056;-65
2024/04/07 05:06:20;;;;;;;4.47;3.03;;;;;;;10.07;100.00;96793.41;5057212;28;20737;-68
2024/04/07 05:08:47;;;;;;;8.48;5.20;;;;;;;10.05;100.00;96787.50;5061855;28;20487;-68
2024/04/07 05:11:13;;;;;;;6.65;3.45;;;;;;;10.24;100.00;96781.22;5057362;28;20076;-68
2024/04/07 05:13:39;;;;;;;13.63;4.00;;;;;;;10.01;100.00;96781.19;5061811;28;20406;-70
2024/04/07 05:16:04;;;;;;;9.40;3.22;;;;;;;10.02;100.00;96796.44;5057234;28;20037;-66
2024/04/07 05:18:31;;;;;;;6.70;3.45;;;;;;;10.12;100.00;96778.66;5057642;28;20045;-69
2024/04/07 05:21:07;;;;;;;7.75;3.13;;;;;;;10.25;100.00;96763.66;5059412;28;20183;-69
2024/04/07 05:23:36;;;;;;;5.75;3.20;;;;;;;10.20;100.00;96768.63;5060289;28;20399;-67
2024/04/07 05:26:11;;;;;;;5.35;3.45;;;;;;;10.33;100.00;96756.38;5057333;28;20041;-65
2024/04/07 05:28:36;;;;;;;7.78;3.00;;;;;;;10.43;100.00;96766.75;5061775;28;20045;-69
2024/04/07 05:31:10;;;;;;;6.65;3.08;;;;;;;10.65;100.00;96762.41;5060160;28;20041;-65
2024/04/07 05:33:37;;;;;;;6.65;2.63;;;;;;;10.92;100.00;96767.16;5044437;28;20500;-66
2024/04/07 05:36:03;;;;;;;8.82;3.05;;;;;;;10.94;100.00;96770.31;5058678;28;20040;-64
2024/04/07 05:38:28;;;;;;;6.82;2.97;;;;;;;10.92;100.00;96772.66;5061653;28;20052;-67
2024/04/07 05:40:58;;;;;;;5.38;3.40;;;;;;;10.44;100.00;96778.47;5062113;28;20036;-69
2024/04/07 05:43:24;;;;;;;5.68;3.70;;;;;;;9.71;100.00;96781.75;5057656;28;20040;-69
2024/04/07 05:45:51;;;;;;;6.95;3.65;;;;;;;9.62;100.00;96786.63;5062651;28;20044;-65
2024/04/07 05:48:17;;;;;;;5.68;2.90;;;;;;;9.75;100.00;96790.03;5067491;28;20040;-67
2024/04/07 05:50:43;;;;;;;6.40;3.42;;;;;;;10.18;100.00;96815.50;5077881;28;20104;-67
2024/04/07 05:53:08;;;;;;;8.48;3.92;;;;;;;10.61;100.00;96827.31;5047800;28;20132;-66
2024/04/07 05:55:37;;;;;;;6.65;3.22;;;;;;;11.30;100.00;96831.97;5071421;28;20139;-69
2024/04/07 05:58:03;;;;;;;8.88;3.53;;;;;;;11.62;100.00;96850.88;5076714;28;20041;-63
2024/04/07 06:00:30;;;;;;;6.15;3.03;;;;;;;12.14;100.00;96854.75;5076530;28;20051;-67
2024/04/07 06:02:55;;;;;;;6.25;2.80;;;;;;;12.67;100.00;96870.28;5076670;28;20107;-69
2024/04/07 06:05:21;;;;;;;6.68;3.38;;;;;;;12.86;100.00;96869.31;5067966;28;20901;-69
2024/04/07 06:07:46;;;;;;;8.98;3.22;;;;;;;12.96;100.00;96889.81;5062563;28;20041;-68
2024/04/07 06:10:11;;;;;;;7.53;3.65;;;;;;;12.74;100.00;96897.03;5057538;28;20414;-69
2024/04/07 06:12:37;;;;;;;4.70;3.03;;;;;;;12.80;100.00;96901.03;5061429;28;20082;-66
2024/04/07 06:15:04;;;;;;;6.55;3.72;;;;;;;12.90;100.00;96900.34;5058131;28;20127;-63
2024/04/07 06:17:30;;;;;;;6.32;3.15;;;;;;;12.94;100.00;96906.69;5061786;28;20040;-68
2024/04/07 06:19:55;;;;;;;8.35;3.38;;;;;;;12.76;100.00;96911.19;5060480;28;20719;-66
2024/04/07 06:22:21;;;;;;;8.55;3.20;;;;;;;12.88;100.00;96899.94;5056173;28;20429;-69
2024/04/07 06:24:47;;;;;;;5.28;3.28;;;;;;;13.07;100.00;96900.91;5059558;28;20041;-67
2024/04/07 06:27:12;;;;;;;8.15;3.63;;;;;;;13.43;100.00;96907.56;5055201;28;20555;-68
2024/04/07 06:29:38;;;;;;;7.95;3.40;;;;;;;13.39;100.00;96909.50;5040020;28;20048;-68
2024/04/07 06:32:03;;;;;;;10.00;3.83;;;;;;;13.04;100.00;96916.22;5055511;28;20487;-63
2024/04/07 06:34:30;;;;;;;8.02;3.30;;;;;;;12.79;100.00;96918.69;5042538;28;20101;-69
2024/04/07 06:36:55;;;;;;;8.10;4.35;;;;;;;13.04;100.00;96913.47;5042936;28;20518;-69
2024/04/07 06:39:21;;;;;;;6.88;3.40;;;;;;;13.13;100.00;96918.66;5056835;28;20459;-69
2024/04/07 06:41:46;;;;;;;6.07;4.60;;;;;;;12.67;100.00;96907.97;5060002;28;20043;-67
2024/04/07 06:44:11;;;;;;;8.82;3.88;;;;;;;12.69;100.00;96908.38;5055404;28;20056;-68
2024/04/07 06:46:37;;;;;;;11.50;3.60;;;;;;;12.96;100.00;96918.09;5059284;28;20079;-68
2024/04/07 06:49:02;;;;;;;6.95;3.90;;;;;;;13.34;100.00;96912.59;5057120;28;20040;-65
2024/04/07 06:51:30;;;;;;;10.25;4.65;;;;;;;13.66;100.00;96929.38;5058471;28;20032;-69
2024/04/07 06:53:57;;;;;;;5.82;3.20;;;;;;;13.83;100.00;96927.94;5063165;28;20040;-67
2024/04/07 06:56:22;;;;;;;6.75;3.35;;;;;;;14.25;100.00;96934.88;5048062;28;20304;-66
2024/04/07 06:58:47;;;;;;;5.68;2.90;;;;;;;15.54;100.00;96942.81;5083371;28;20044;-65
2024/04/07 07:01:13;;;;;;;6.63;2.97;;;;;;;16.39;100.00;96948.66;5075705;28;20028;-68
2024/04/07 07:03:38;;;;;;;6.53;2.45;;;;;;;17.70;99.85;96953.97;5066691;28;20471;-68
2024/04/07 07:06:04;;;;;;;4.70;2.72;;;;;;;18.76;89.09;96954.53;5055203;28;20086;-66
2024/04/07 07:08:29;;;;;;;5.55;2.88;;;;;;;17.65;89.54;96965.47;5059392;28;20041;-68
2024/04/07 07:11:01;;;;;;;6.63;2.80;;;;;;;16.64;100.00;96962.41;5059376;28;20403;-69
2024/04/07 07:13:28;;;;;;;7.30;2.72;;;;;;;17.39;95.17;96966.81;5058130;28;20056;-67
2024/04/07 07:15:54;;;;;;;7.28;2.78;;;;;;;17.63;92.14;96967.84;5062638;28;20044;-69
2024/04/07 07:18:20;;;;;;;7.03;2.60;;;;;;;19.08;86.85;96968.81;5054651;28;20419;-69
2024/04/07 07:20:45;;;;;;;6.28;3.33;;;;;;;17.98;90.37;96982.66;5059991;28;20045;-68
2024/04/07 07:23:12;;;;;;;6.68;3.10;;;;;;;18.20;90.82;96982.47;5039500;28;20036;-67
2024/04/07 07:25:40;;;;;;;10.07;3.25;;;;;;;18.74;86.41;96988.22;5059007;28;20152;-65
2024/04/07 07:28:05;;;;;;;8.60;2.92;;;;;;;19.75;78.06;96984.19;5027246;28;20051;-67
2024/04/07 07:30:31;;;;;;;7.85;2.83;;;;;;;20.46;74.51;96987.75;5061048;28;20041;-67
2024/04/07 07:32:57;;;;;;;7.78;3.03;;;;;;;21.10;67.90;96993.31;5059777;28;20041;-68
2024/04/07 07:35:22;;;;;;;5.82;2.42;;;;;;;19.93;71.75;96989.47;5055084;28;20794;-69
2024/04/07 07:37:48;;;;;;;10.70;3.08;;;;;;;20.77;68.41;97002.31;5059298;28;20040;-68
2024/04/07 07:40:13;;;;;;;9.65;3.10;;;;;;;21.11;65.11;96997.69;5055451;28;20032;-68
2024/04/07 07:42:38;;;;;;;8.32;3.25;;;;;;;21.33;64.07;97009.16;5060455;28;20045;-67
2024/04/07 07:45:05;;;;;;;9.13;3.03;;;;;;;21.44;64.66;96998.53;5055217;28;20123;-66
2024/04/07 07:47:31;;;;;;;8.55;3.90;;;;;;;21.46;68.85;97007.28;5041358;28;20047;-69
2024/04/07 07:49:57;;;;;;;11.90;5.53;;;;;;;21.24;75.91;97014.53;5060114;28;20032;-69
2024/04/07 07:52:24;;;;;;;10.13;5.00;;;;;;;21.05;72.15;97027.22;5038908;28;20037;-69
2024/04/07 07:54:49;;;;;;;10.60;4.85;;;;;;;21.19;71.02;97029.72;5062919;28;20113;-68
2024/04/07 07:57:15;;;;;;;10.02;4.97;;;;;;;20.57;71.64;97015.41;5056182;28;20455;-67
2024/04/07 07:59:41;;;;;;;7.75;4.20;;;;;;;21.29;63.96;97030.72;5060391;28;20048;-69
2024/04/07 08:02:06;;;;;;;8.00;3.53;;;;;;;21.20;57.63;97032.09;5054834;28;20368;-69
2024/04/07 08:04:32;;;;;;;13.38;3.33;;;;;;;21.65;55.79;97032.78;5060249;28;20052;-70
2024/04/07 08:06:57;;;;;;;8.73;2.90;;;;;;;21.83;52.60;97032.38;5060947;28;20067;-68
2024/04/07 08:09:24;;;;;;;8.30;2.88;;;;;;;21.99;50.96;97034.41;5055986;28;20041;-67
2024/04/07 08:11:50;;;;;;;7.15;2.67;;;;;;;21.57;51.90;97035.72;5044005;28;20048;-70
2024/04/07 08:14:16;;;;;;;6.78;2.90;;;;;;;21.57;52.45;97029.34;5056132;28;20032;-67
2024/04/07 08:16:42;;;;;;;8.25;2.95;;;;;;;22.10;51.31;97032.91;5059364;28;20656;-65
2024/04/07 08:19:08;;;;;;;6.60;2.42;;;;;;;22.57;50.65;97036.56;5036020;28;20128;-67
2024/04/07 08:21:34;;;;;;;9.60;3.20;;;;;;;22.61;51.70;97031.69;5059535;28;20121;-69
2024/04/07 08:24:00;;;;;;;6.57;2.90;;;;;;;23.37;50.17;97033.19;5041569;28;20064;-68
2024/04/07 08:26:25;;;;;;;6.38;2.85;;;;;;;23.29;49.56;97039.00;5055787;28;20045;-68
2024/04/07 08:28:50;;;;;;;7.20;2.85;;;;;;;23.47;47.12;97032.88;5060252;28;20056;-68
2024/04/07 08:31:16;;;;;;;7.72;2.65;;;;;;;24.33;45.93;97029.44;5016873;28;20605;-68
2024/04/07 08:33:41;;;;;;;4.72;2.55;;;;;;;25.15;44.86;97039.03;5056976;28;20058;-68
2024/04/07 08:36:07;;;;;;;8.32;2.47;;;;;;;24.33;44.29;97037.84;5056372;28;20041;-69
2024/04/07 08:38:32;;;;;;;8.18;2.10;;;;;;;24.52;39.51;97041.59;5061909;28;20040;-65
2024/04/07 08:40:57;;;;;;;9.10;3.80;;;;;;;23.51;42.61;97032.00;5044306;28;20506;-67
2024/04/07 08:43:24;;;;;;;6.10;2.92;;;;;;;22.79;45.61;97028.41;5058026;28;20052;-69
2024/04/07 08:45:50;;;;;;;9.35;2.65;;;;;;;21.72;52.66;97021.47;5062845;28;20046;-68
2024/04/07 08:48:20;;;;;;;7.07;2.80;;;;;;;22.92;49.57;97023.66;5055777;28;20037;-66
2024/04/07 08:50:47;;;;;;;;;;;;;;;23.81;45.13;97025.13;5043943;28;20044;-70
2024/04/07 08:53:15;;;;;;;7.28;2.72;;;;;;;23.14;43.15;97023.09;5056942;28;19919;-70
2024/04/07 08:55:40;;;;;;;4.53;1.90;;;;;;;23.57;40.02;97033.81;5063273;28;20048;-69
2024/04/07 08:58:07;;;;;;;5.35;2.30;;;;;;;24.04;40.17;97019.19;5042000;28;20118;-68
2024/04/07 09:00:35;;;;;;;5.45;1.77;;;;;;;24.09;40.82;97023.41;5065652;28;20387;-70
2024/04/07 09:03:01;;;;;;;6.60;2.00;;;;;;;23.83;40.72;97031.81;5063370;28;20163;-65
2024/04/07 09:05:27;;;;;;;8.43;2.05;;;;;;;23.97;40.42;97030.59;5061827;28;20102;-70
2024/04/07 09:07:52;;;;;;;7.38;2.65;;;;;;;24.77;37.83;97029.56;5062423;28;20044;-66
2024/04/07 09:10:18;;;;;;;5.05;1.92;;;;;;;25.02;37.47;97036.31;5057300;28;20072;-70
2024/04/07 09:12:43;;;;;;;8.27;2.08;;;;;;;25.01;37.35;97043.13;5044091;28;20593;-67
2024/04/07 09:15:09;;;;;;;7.43;1.80;;;;;;;25.32;36.52;97040.44;5055165;28;20044;-67
2024/04/07 09:17:35;;;;;;;8.43;2.00;;;;;;;25.24;34.34;97039.13;5061210;28;20490;-68
2024/04/07 09:20:00;;;;;;;5.63;1.95;;;;;;;24.69;34.09;97033.88;5061744;28;20044;-69
2024/04/07 09:22:26;;;;;;;4.65;1.90;;;;;;;25.06;33.29;97034.16;5057426;28;20044;-69
2024/04/07 09:24:59;;;;;;;7.47;1.98;;;;;;;24.29;34.81;97027.97;5044031;28;20554;-69
2024/04/07 09:27:25;;;;;;;5.25;1.67;;;;;;;24.70;34.29;97024.22;5053944;28;20124;-68
2024/04/07 09:29:50;;;;;;;7.32;1.90;;;;;;;25.22;34.04;97021.97;5042310;28;20399;-69
2024/04/07 09:32:17;;;;;;;8.75;1.85;;;;;;;24.97;33.46;97017.28;5037909;28;20047;-70
2024/04/07 09:34:42;;;;;;;6.95;1.48;;;;;;;25.86;33.72;97015.94;5042682;28;20135;-67
2024/04/07 09:37:08;;;;;;;7.10;1.70;;;;;;;26.71;32.00;97012.94;5055340;28;20116;-68
2024/04/07 09:39:33;;;;;;;10.40;1.83;;;;;;;27.39;31.52;97014.78;5060788;28;20064;-67
2024/04/07 09:42:01;;;;;;;6.28;1.50;;;;;;;27.96;30.93;97012.09;5060590;28;20583;-68
2024/04/07 09:44:34;;;;;;;9.02;1.83;;;;;;;27.88;29.88;97016.50;5057035;28;20067;-67
2024/04/07 09:47:06;;;;;;;11.77;1.88;;;;;;;26.87;30.75;97015.41;5061070;28;20037;-66
2024/04/07 09:49:35;;;;;;;6.90;1.50;;;;;;;27.44;31.29;97014.13;5060859;28;20106;-66
2024/04/07 09:52:04;;;;;;;7.97;1.67;;;;;;;24.95;33.65;97006.50;5042137;28;20047;-68
2024/04/07 09:54:39;;;;;;;6.00;1.83;;;;;;;26.07;33.52;97007.94;5060735;28;20578;-68
2024/04/07 09:57:09;;;;;;;6.63;1.70;;;;;;;25.40;35.17;96993.28;5055331;28;20047;-69
2024/04/07 09:59:38;;;;;;;8.88;1.55;;;;;;;25.92;34.62;97002.88;5060169;28;20048;-68
2024/04/07 10:02:04;;;;;;;6.65;1.90;;;;;;;25.38;36.67;96993.75;5037521;28;20047;-65
2024/04/07 10:04:33;;;;;;;8.82;1.50;;;;;;;26.81;32.18;97002.47;5043759;28;20036;-68
2024/04/07 10:07:00;;;;;;;5.97;1.60;;;;;;;26.78;30.95;97006.22;5059758;28;20519;-68
2024/04/07 10:09:26;;;;;;;6.22;1.50;;;;;;;27.26;30.99;96998.88;5055921;28;20395;-68
2024/04/07 10:11:52;;;;;;;9.23;1.73;;;;;;;27.47;30.88;97004.75;5059192;28;20041;-66
2024/04/07 10:14:17;;;;;;;5.40;1.52;;;;;;;26.65;31.63;97004.34;5057275;28;20426;-69
2024/04/07 10:16:54;;;;;;;5.90;1.83;;;;;;;25.12;33.29;96997.91;5061989;28;20040;-67
2024/04/07 10:19:24;;;;;;;8.75;1.95;;;;;;;25.03;32.91;96993.06;5055484;28;20038;-67
2024/04/07 10:21:49;;;;;;;7.13;1.63;;;;;;;24.74;33.44;96994.06;5061595;28;20533;-68
2024/04/07 10:24:17;;;;;;;5.63;1.77;;;;;;;24.48;34.32;96990.53;5055832;28;20129;-69
2024/04/07 10:27:12;;;;;;;9.07;1.83;;;;;;;24.83;34.71;96989.78;5056098;28;20045;-68
2024/04/07 10:29:39;;;;;;;8.85;2.00;;;;;;;24.80;36.04;96991.47;5036630;28;20318;-69
2024/04/07 10:32:15;;;;;;;6.95;2.03;;;;;;;24.58;35.56;96991.47;5037046;28;20131;-67
2024/04/07 10:35:05;;;;;;;10.57;2.42;;;;;;;24.39;35.06;96984.88;5062094;28;20437;-68
2024/04/07 10:37:31;;;;;;;10.13;2.08;;;;;;;23.99;35.56;96974.22;5060372;28;20037;-69
2024/04/07 10:39:57;;;;;;;11.77;2.15;;;;;;;23.67;36.42;96975.97;5059817;28;20514;-68
2024/04/07 10:42:23;;;;;;;11.57;1.90;;;;;;;23.60;35.79;96970.63;5054174;28;20056;-68
2024/04/07 10:44:49;;;;;;;7.43;1.67;;;;;;;23.99;34.88;96974.22;5059863;28;20036;-70
2024/04/07 10:47:14;;;;;;;5.22;1.67;;;;;;;23.96;34.43;96972.31;5055113;28;20114;-70
2024/04/07 10:49:40;;;;;;;8.38;2.20;;;;;;;23.72;35.03;96971.84;5060659;28;20764;-69
2024/04/07 10:52:17;;;;;;;7.72;2.10;;;;;;;24.16;33.53;96977.63;5054982;28;20063;-69
2024/04/07 10:54:42;;;;;;;7.90;1.67;;;;;;;24.77;31.96;96978.38;5059544;28;20047;-69
2024/04/07 10:57:12;;;;;;;8.75;1.67;;;;;;;24.82;33.07;96969.38;5052973;28;20040;-69
2024/04/07 10:59:38;;;;;;;5.90;1.40;;;;;;;25.27;32.47;96961.78;5059006;28;20139;-67
2024/04/07 11:02:05;;;;;;;7.60;1.75;;;;;;;25.49;32.57;96953.31;5055968;28;20119;-64
2024/04/07 11:04:32;;;;;;;9.63;1.70;;;;;;;25.81;31.34;96948.44;5059929;28;20040;-67
2024/04/07 11:06:59;;;;;;;8.80;1.60;;;;;;;25.46;31.92;96949.41;5062987;28;20044;-68
2024/04/07 11:09:25;;;;;;;8.70;2.20;;;;;;;25.35;32.48;96946.22;5072194;28;20108;-69
2024/04/07 11:11:54;;;;;;;11.90;2.15;;;;;;;25.79;32.02;96950.94;5078031;28;20048;-67
2024/04/07 11:14:26;;;;;;;8.57;1.92;;;;;;;23.84;35.59;96935.53;5068150;28;20041;-69
2024/04/07 11:17:00;;;;;;;11.90;1.80;;;;;;;24.69;35.49;96933.03;5060825;28;20052;-68
2024/04/07 11:19:26;;;;;;;10.55;1.80;;;;;;;23.83;37.82;96936.75;5053588;28;20078;-68
2024/04/07 11:21:52;;;;;;;8.40;1.90;;;;;;;23.40;38.23;96929.69;5059772;28;20040;-67
2024/04/07 11:24:19;;;;;;;5.47;2.10;;;;;;;23.16;40.40;96918.06;5053236;28;20438;-67
2024/04/07 11:26:44;;;;;;;9.05;2.10;;;;;;;24.10;38.36;96923.50;5041619;28;20044;-67
2024/04/07 11:29:11;;;;;;;9.68;1.90;;;;;;;24.73;37.01;96916.88;5054915;28;20048;-68
2024/04/07 11:31:37;;;;;;;13.13;1.77;;;;;;;24.22;37.59;96912.25;5058384;28;20044;-67
2024/04/07 11:34:02;;;;;;;12.02;1.95;;;;;;;24.67;37.63;96915.13;5056894;28;20371;-63